sensor_id;sensor_type;location;lat;lon;timestamp;P1;durP1;ratioP1;P2;durP2;ratioP2
13683;SDS011;6914;53.552;9.908;2023-10-08T00:02:22;20.63;;;7.10;;
13683;SDS011;6914;53.552;9.908;2023-10-08T00:04:52;16.87;;;6.57;;
13683;SDS011;6914;53.552;9.908;2023-10-08T00:07:20;20.87;;;7.20;;
13683;SDS011;6914;53.552;9.908;2023-10-08T00:09:50;22.40;;;6.67;;
13683;SDS011;6914;53.552;9.908;2023-10-08T00:12:18;18.00;;;5.40;;
13683;SDS011;6914;53.552;9.908;2023-10-08T00:14:45;22.07;;;5.73;;
13683;SDS011;6914;53.552;9.908;2023-10-08T00:17:14;17.13;;;5.23;;
13683;SDS011;6914;53.552;9.908;2023-10-08T00:19:42;9.90;;;4.03;;
13683;SDS011;6914;53.552;9.908;2023-10-08T00:22:09;24.70;;;5.23;;
13683;SDS011;6914;53.552;9.908;2023-10-08T00:24:38;20.53;;;4.47;;
13683;SDS011;6914;53.552;9.908;2023-10-08T00:27:08;14.90;;;4.47;;
13683;SDS011;6914;53.552;9.908;2023-10-08T00:29:39;13.13;;;4.10;;
13683;SDS011;6914;53.552;9.908;2023-10-08T00:32:08;9.63;;;3.80;;
13683;SDS011;6914;53.552;9.908;2023-10-08T00:34:40;14.67;;;3.87;;
13683;SDS011;6914;53.552;9.908;2023-10-08T00:37:08;14.27;;;3.43;;
13683;SDS011;6914;53.552;9.908;2023-10-08T00:39:36;24.43;;;3.63;;
13683;SDS011;6914;53.552;9.908;2023-10-08T00:42:05;13.77;;;3.00;;
13683;SDS011;6914;53.552;9.908;2023-10-08T00:44:34;14.60;;;3.80;;
13683;SDS011;6914;53.552;9.908;2023-10-08T00:47:12;6.77;;;3.33;;
13683;SDS011;6914;53.552;9.908;2023-10-08T00:49:40;21.33;;;3.63;;
13683;SDS011;6914;53.552;9.908;2023-10-08T00:52:33;7.80;;;2.97;;
13683;SDS011;6914;53.552;9.908;2023-10-08T00:55:08;19.10;;;3.83;;
13683;SDS011;6914;53.552;9.908;2023-10-08T00:57:45;9.43;;;2.83;;
13683;SDS011;6914;53.552;9.908;2023-10-08T01:00:19;12.70;;;3.83;;
13683;SDS011;6914;53.552;9.908;2023-10-08T01:02:48;15.93;;;3.87;;
13683;SDS011;6914;53.552;9.908;2023-10-08T01:05:26;9.23;;;3.73;;
13683;SDS011;6914;53.552;9.908;2023-10-08T01:08:07;13.17;;;3.87;;
13683;SDS011;6914;53.552;9.908;2023-10-08T01:10:37;11.03;;;3.30;;
13683;SDS011;6914;53.552;9.908;2023-10-08T01:13:05;7.03;;;2.93;;
13683;SDS011;6914;53.552;9.908;2023-10-08T01:15:40;6.30;;;3.20;;
13683;SDS011;6914;53.552;9.908;2023-10-08T01:18:09;7.83;;;3.40;;
13683;SDS011;6914;53.552;9.908;2023-10-08T01:20:40;16.63;;;2.90;;
13683;SDS011;6914;53.552;9.908;2023-10-08T01:23:18;9.10;;;3.17;;
13683;SDS011;6914;53.552;9.908;2023-10-08T01:25:47;12.67;;;2.90;;
13683;SDS011;6914;53.552;9.908;2023-10-08T01:28:16;18.20;;;2.77;;
13683;SDS011;6914;53.552;9.908;2023-10-08T01:30:50;8.23;;;3.37;;
13683;SDS011;6914;53.552;9.908;2023-10-08T01:33:20;8.83;;;2.70;;
13683;SDS011;6914;53.552;9.908;2023-10-08T01:35:53;17.60;;;3.70;;
13683;SDS011;6914;53.552;9.908;2023-10-08T01:38:21;17.83;;;3.33;;
13683;SDS011;6914;53.552;9.908;2023-10-08T01:40:51;13.60;;;3.10;;
13683;SDS011;6914;53.552;9.908;2023-10-08T01:43:18;7.80;;;2.77;;
13683;SDS011;6914;53.552;9.908;2023-10-08T01:45:46;5.50;;;3.00;;
13683;SDS011;6914;53.552;9.908;2023-10-08T01:48:16;24.57;;;3.10;;
13683;SDS011;6914;53.552;9.908;2023-10-08T01:50:53;8.13;;;2.90;;
13683;SDS011;6914;53.552;9.908;2023-10-08T01:53:22;8.63;;;3.23;;
13683;SDS011;6914;53.552;9.908;2023-10-08T01:55:52;12.30;;;3.23;;
13683;SDS011;6914;53.552;9.908;2023-10-08T01:58:21;8.63;;;2.83;;
13683;SDS011;6914;53.552;9.908;2023-10-08T02:00:48;6.13;;;2.73;;
13683;SDS011;6914;53.552;9.908;2023-10-08T02:03:17;16.70;;;2.80;;
13683;SDS011;6914;53.552;9.908;2023-10-08T02:05:44;7.80;;;3.23;;
13683;SDS011;6914;53.552;9.908;2023-10-08T02:08:12;13.07;;;3.63;;
13683;SDS011;6914;53.552;9.908;2023-10-08T02:10:41;10.50;;;3.13;;
13683;SDS011;6914;53.552;9.908;2023-10-08T02:13:12;19.87;;;3.77;;
13683;SDS011;6914;53.552;9.908;2023-10-08T02:15:40;9.80;;;2.80;;
13683;SDS011;6914;53.552;9.908;2023-10-08T02:18:08;8.90;;;2.90;;
13683;SDS011;6914;53.552;9.908;2023-10-08T02:20:35;11.10;;;2.80;;
13683;SDS011;6914;53.552;9.908;2023-10-08T02:23:02;10.13;;;3.37;;
13683;SDS011;6914;53.552;9.908;2023-10-08T02:25:30;8.33;;;3.17;;
13683;SDS011;6914;53.552;9.908;2023-10-08T02:28:01;11.93;;;3.00;;
13683;SDS011;6914;53.552;9.908;2023-10-08T02:30:29;14.70;;;3.00;;
13683;SDS011;6914;53.552;9.908;2023-10-08T02:32:56;9.03;;;2.63;;
13683;SDS011;6914;53.552;9.908;2023-10-08T02:35:23;10.53;;;2.63;;
13683;SDS011;6914;53.552;9.908;2023-10-08T02:37:52;4.93;;;2.70;;
13683;SDS011;6914;53.552;9.908;2023-10-08T02:40:20;11.90;;;2.63;;
13683;SDS011;6914;53.552;9.908;2023-10-08T02:42:52;11.73;;;2.20;;
13683;SDS011;6914;53.552;9.908;2023-10-08T02:45:24;10.07;;;2.23;;
13683;SDS011;6914;53.552;9.908;2023-10-08T02:47:51;4.43;;;2.40;;
13683;SDS011;6914;53.552;9.908;2023-10-08T02:50:19;7.60;;;2.50;;
13683;SDS011;6914;53.552;9.908;2023-10-08T02:52:47;7.00;;;2.53;;
13683;SDS011;6914;53.552;9.908;2023-10-08T02:55:15;12.03;;;2.27;;
13683;SDS011;6914;53.552;9.908;2023-10-08T02:57:50;16.70;;;2.97;;
13683;SDS011;6914;53.552;9.908;2023-10-08T03:00:18;9.23;;;2.30;;
13683;SDS011;6914;53.552;9.908;2023-10-08T03:02:47;12.97;;;2.67;;
13683;SDS011;6914;53.552;9.908;2023-10-08T03:05:14;19.63;;;2.23;;
13683;SDS011;6914;53.552;9.908;2023-10-08T03:07:44;4.67;;;2.23;;
13683;SDS011;6914;53.552;9.908;2023-10-08T03:10:16;7.80;;;2.47;;
13683;SDS011;6914;53.552;9.908;2023-10-08T03:12:44;9.10;;;2.20;;
13683;SDS011;6914;53.552;9.908;2023-10-08T03:15:12;3.17;;;2.40;;
13683;SDS011;6914;53.552;9.908;2023-10-08T03:17:55;6.10;;;1.67;;
13683;SDS011;6914;53.552;9.908;2023-10-08T03:20:33;8.10;;;2.20;;
13683;SDS011;6914;53.552;9.908;2023-10-08T03:23:07;7.00;;;2.20;;
13683;SDS011;6914;53.552;9.908;2023-10-08T03:25:48;7.60;;;2.30;;
13683;SDS011;6914;53.552;9.908;2023-10-08T03:28:22;4.10;;;1.90;;
13683;SDS011;6914;53.552;9.908;2023-10-08T03:30:50;6.20;;;1.80;;
13683;SDS011;6914;53.552;9.908;2023-10-08T03:33:29;6.53;;;2.30;;
13683;SDS011;6914;53.552;9.908;2023-10-08T03:35:59;7.60;;;2.00;;
13683;SDS011;6914;53.552;9.908;2023-10-08T03:38:34;6.20;;;1.80;;
13683;SDS011;6914;53.552;9.908;2023-10-08T03:41:10;21.70;;;2.10;;
13683;SDS011;6914;53.552;9.908;2023-10-08T03:43:43;3.97;;;1.70;;
13683;SDS011;6914;53.552;9.908;2023-10-08T03:46:17;4.60;;;2.00;;
13683;SDS011;6914;53.552;9.908;2023-10-08T03:48:48;3.70;;;1.30;;
13683;SDS011;6914;53.552;9.908;2023-10-08T03:51:17;9.43;;;1.97;;
13683;SDS011;6914;53.552;9.908;2023-10-08T03:53:46;6.93;;;1.93;;
13683;SDS011;6914;53.552;9.908;2023-10-08T03:56:40;3.90;;;1.83;;
13683;SDS011;6914;53.552;9.908;2023-10-08T03:59:10;11.00;;;1.60;;
13683;SDS011;6914;53.552;9.908;2023-10-08T04:01:39;2.20;;;1.37;;
13683;SDS011;6914;53.552;9.908;2023-10-08T04:04:08;2.17;;;1.40;;
13683;SDS011;6914;53.552;9.908;2023-10-08T04:06:39;6.47;;;1.40;;
13683;SDS011;6914;53.552;9.908;2023-10-08T04:09:13;3.43;;;1.40;;
13683;SDS011;6914;53.552;9.908;2023-10-08T04:11:49;3.53;;;1.40;;
13683;SDS011;6914;53.552;9.908;2023-10-08T04:14:28;2.93;;;1.30;;
13683;SDS011;6914;53.552;9.908;2023-10-08T04:16:56;4.40;;;2.10;;
13683;SDS011;6914;53.552;9.908;2023-10-08T04:19:25;9.37;;;1.60;;
13683;SDS011;6914;53.552;9.908;2023-10-08T04:21:53;7.30;;;2.13;;
13683;SDS011;6914;53.552;9.908;2023-10-08T04:24:21;6.70;;;1.53;;
13683;SDS011;6914;53.552;9.908;2023-10-08T04:26:54;4.90;;;1.43;;
13683;SDS011;6914;53.552;9.908;2023-10-08T04:29:22;7.03;;;1.53;;
13683;SDS011;6914;53.552;9.908;2023-10-08T04:31:51;4.07;;;1.83;;
13683;SDS011;6914;53.552;9.908;2023-10-08T04:34:28;6.30;;;1.63;;
13683;SDS011;6914;53.552;9.908;2023-10-08T04:36:58;13.63;;;2.23;;
13683;SDS011;6914;53.552;9.908;2023-10-08T04:39:28;2.43;;;1.50;;
13683;SDS011;6914;53.552;9.908;2023-10-08T04:41:58;2.40;;;1.80;;
13683;SDS011;6914;53.552;9.908;2023-10-08T04:44:31;8.23;;;1.93;;
13683;SDS011;6914;53.552;9.908;2023-10-08T04:46:58;11.10;;;4.40;;
13683;SDS011;6914;53.552;9.908;2023-10-08T04:49:33;10.53;;;1.97;;
13683;SDS011;6914;53.552;9.908;2023-10-08T04:52:03;5.33;;;1.80;;
13683;SDS011;6914;53.552;9.908;2023-10-08T04:54:34;7.30;;;1.70;;
13683;SDS011;6914;53.552;9.908;2023-10-08T04:57:05;4.50;;;1.70;;
13683;SDS011;6914;53.552;9.908;2023-10-08T04:59:40;5.57;;;1.50;;
13683;SDS011;6914;53.552;9.908;2023-10-08T05:02:09;4.30;;;1.60;;
13683;SDS011;6914;53.552;9.908;2023-10-08T05:04:46;11.03;;;1.90;;
13683;SDS011;6914;53.552;9.908;2023-10-08T05:07:31;7.33;;;1.70;;
13683;SDS011;6914;53.552;9.908;2023-10-08T05:10:21;14.17;;;2.33;;
13683;SDS011;6914;53.552;9.908;2023-10-08T05:13:06;3.07;;;1.73;;
13683;SDS011;6914;53.552;9.908;2023-10-08T05:15:44;6.13;;;1.33;;
13683;SDS011;6914;53.552;9.908;2023-10-08T05:18:27;5.93;;;1.60;;
13683;SDS011;6914;53.552;9.908;2023-10-08T05:21:17;7.40;;;1.50;;
13683;SDS011;6914;53.552;9.908;2023-10-08T05:23:51;2.73;;;1.37;;
13683;SDS011;6914;53.552;9.908;2023-10-08T05:26:40;6.03;;;2.10;;
13683;SDS011;6914;53.552;9.908;2023-10-08T05:29:09;6.83;;;1.57;;
13683;SDS011;6914;53.552;9.908;2023-10-08T05:32:15;3.10;;;1.23;;
13683;SDS011;6914;53.552;9.908;2023-10-08T05:35:09;4.10;;;1.37;;
13683;SDS011;6914;53.552;9.908;2023-10-08T05:37:59;4.03;;;2.13;;
13683;SDS011;6914;53.552;9.908;2023-10-08T05:40:39;3.73;;;1.43;;
13683;SDS011;6914;53.552;9.908;2023-10-08T05:43:24;6.33;;;2.03;;
13683;SDS011;6914;53.552;9.908;2023-10-08T05:46:14;4.60;;;1.70;;
13683;SDS011;6914;53.552;9.908;2023-10-08T05:49:00;4.90;;;1.43;;
13683;SDS011;6914;53.552;9.908;2023-10-08T05:51:40;11.50;;;1.80;;
13683;SDS011;6914;53.552;9.908;2023-10-08T05:54:13;2.80;;;1.53;;
13683;SDS011;6914;53.552;9.908;2023-10-08T05:57:02;4.50;;;1.60;;
13683;SDS011;6914;53.552;9.908;2023-10-08T05:59:32;3.20;;;1.70;;
13683;SDS011;6914;53.552;9.908;2023-10-08T06:02:04;6.37;;;1.70;;
13683;SDS011;6914;53.552;9.908;2023-10-08T06:04:51;8.13;;;1.70;;
13683;SDS011;6914;53.552;9.908;2023-10-08T06:07:37;4.83;;;1.50;;
13683;SDS011;6914;53.552;9.908;2023-10-08T06:10:15;2.40;;;1.17;;
13683;SDS011;6914;53.552;9.908;2023-10-08T06:13:07;4.67;;;1.60;;
13683;SDS011;6914;53.552;9.908;2023-10-08T06:15:39;6.17;;;1.97;;
13683;SDS011;6914;53.552;9.908;2023-10-08T06:18:14;5.87;;;1.73;;
13683;SDS011;6914;53.552;9.908;2023-10-08T06:20:41;7.67;;;2.00;;
13683;SDS011;6914;53.552;9.908;2023-10-08T06:23:10;5.50;;;1.43;;
13683;SDS011;6914;53.552;9.908;2023-10-08T06:25:40;1.73;;;1.33;;
13683;SDS011;6914;53.552;9.908;2023-10-08T06:28:19;2.90;;;1.57;;
13683;SDS011;6914;53.552;9.908;2023-10-08T06:30:50;8.20;;;2.00;;
13683;SDS011;6914;53.552;9.908;2023-10-08T06:33:20;2.47;;;1.43;;
13683;SDS011;6914;53.552;9.908;2023-10-08T06:35:50;9.73;;;1.93;;
13683;SDS011;6914;53.552;9.908;2023-10-08T06:38:27;9.80;;;2.60;;
13683;SDS011;6914;53.552;9.908;2023-10-08T06:41:00;7.63;;;1.60;;
13683;SDS011;6914;53.552;9.908;2023-10-08T06:43:33;5.20;;;1.80;;
13683;SDS011;6914;53.552;9.908;2023-10-08T06:46:03;3.20;;;2.27;;
13683;SDS011;6914;53.552;9.908;2023-10-08T06:48:32;5.67;;;1.90;;
13683;SDS011;6914;53.552;9.908;2023-10-08T06:51:07;12.97;;;1.67;;
13683;SDS011;6914;53.552;9.908;2023-10-08T06:53:38;2.97;;;1.43;;
13683;SDS011;6914;53.552;9.908;2023-10-08T06:56:09;19.73;;;2.60;;
13683;SDS011;6914;53.552;9.908;2023-10-08T06:58:37;6.33;;;1.90;;
13683;SDS011;6914;53.552;9.908;2023-10-08T07:01:07;8.80;;;2.77;;
13683;SDS011;6914;53.552;9.908;2023-10-08T07:03:37;5.60;;;2.10;;
13683;SDS011;6914;53.552;9.908;2023-10-08T07:06:05;8.13;;;2.23;;
13683;SDS011;6914;53.552;9.908;2023-10-08T07:08:41;15.23;;;2.40;;
13683;SDS011;6914;53.552;9.908;2023-10-08T07:11:13;7.80;;;1.63;;
13683;SDS011;6914;53.552;9.908;2023-10-08T07:13:43;3.00;;;1.67;;
13683;SDS011;6914;53.552;9.908;2023-10-08T07:16:10;2.20;;;1.80;;
13683;SDS011;6914;53.552;9.908;2023-10-08T07:18:37;4.60;;;2.30;;
13683;SDS011;6914;53.552;9.908;2023-10-08T07:21:07;4.57;;;1.83;;
13683;SDS011;6914;53.552;9.908;2023-10-08T07:23:38;3.30;;;1.20;;
13683;SDS011;6914;53.552;9.908;2023-10-08T07:26:22;2.53;;;1.83;;
13683;SDS011;6914;53.552;9.908;2023-10-08T07:28:50;7.13;;;1.97;;
13683;SDS011;6914;53.552;9.908;2023-10-08T07:31:18;9.10;;;1.60;;
13683;SDS011;6914;53.552;9.908;2023-10-08T07:33:47;12.43;;;2.10;;
13683;SDS011;6914;53.552;9.908;2023-10-08T07:36:21;9.60;;;1.90;;
13683;SDS011;6914;53.552;9.908;2023-10-08T07:38:48;5.03;;;1.60;;
13683;SDS011;6914;53.552;9.908;2023-10-08T07:41:15;9.40;;;1.63;;
13683;SDS011;6914;53.552;9.908;2023-10-08T07:43:46;5.33;;;1.53;;
13683;SDS011;6914;53.552;9.908;2023-10-08T07:46:20;3.30;;;1.70;;
13683;SDS011;6914;53.552;9.908;2023-10-08T07:48:47;3.27;;;3.03;;
13683;SDS011;6914;53.552;9.908;2023-10-08T07:51:15;7.20;;;1.80;;
13683;SDS011;6914;53.552;9.908;2023-10-08T07:53:46;10.70;;;1.60;;
13683;SDS011;6914;53.552;9.908;2023-10-08T07:56:14;5.13;;;1.70;;
13683;SDS011;6914;53.552;9.908;2023-10-08T07:58:43;8.03;;;1.50;;
13683;SDS011;6914;53.552;9.908;2023-10-08T08:01:11;9.03;;;1.60;;
13683;SDS011;6914;53.552;9.908;2023-10-08T08:03:39;7.50;;;1.40;;
13683;SDS011;6914;53.552;9.908;2023-10-08T08:06:07;5.53;;;1.50;;
13683;SDS011;6914;53.552;9.908;2023-10-08T08:08:35;4.83;;;1.00;;
13683;SDS011;6914;53.552;9.908;2023-10-08T08:11:06;2.80;;;1.50;;
13683;SDS011;6914;53.552;9.908;2023-10-08T08:13:37;2.00;;;1.20;;
13683;SDS011;6914;53.552;9.908;2023-10-08T08:16:07;6.17;;;1.40;;
13683;SDS011;6914;53.552;9.908;2023-10-08T08:18:45;6.03;;;1.60;;
13683;SDS011;6914;53.552;9.908;2023-10-08T08:21:13;7.40;;;1.33;;
13683;SDS011;6914;53.552;9.908;2023-10-08T08:23:42;2.40;;;1.60;;
13683;SDS011;6914;53.552;9.908;2023-10-08T08:26:15;2.47;;;1.50;;
13683;SDS011;6914;53.552;9.908;2023-10-08T08:28:59;5.80;;;1.30;;
13683;SDS011;6914;53.552;9.908;2023-10-08T08:31:27;2.07;;;1.10;;
13683;SDS011;6914;53.552;9.908;2023-10-08T08:33:58;7.93;;;1.63;;
13683;SDS011;6914;53.552;9.908;2023-10-08T08:36:33;5.47;;;1.50;;
13683;SDS011;6914;53.552;9.908;2023-10-08T08:39:04;4.20;;;1.23;;
13683;SDS011;6914;53.552;9.908;2023-10-08T08:41:36;7.73;;;1.40;;
13683;SDS011;6914;53.552;9.908;2023-10-08T08:44:12;1.73;;;1.30;;
13683;SDS011;6914;53.552;9.908;2023-10-08T08:46:40;2.17;;;1.17;;
13683;SDS011;6914;53.552;9.908;2023-10-08T08:51:44;8.50;;;1.47;;
13683;SDS011;6914;53.552;9.908;2023-10-08T08:54:17;2.30;;;0.90;;
13683;SDS011;6914;53.552;9.908;2023-10-08T08:56:45;4.17;;;0.90;;
13683;SDS011;6914;53.552;9.908;2023-10-08T08:59:13;2.10;;;1.43;;
13683;SDS011;6914;53.552;9.908;2023-10-08T09:01:42;3.23;;;1.17;;
13683;SDS011;6914;53.552;9.908;2023-10-08T09:04:09;5.23;;;1.40;;
13683;SDS011;6914;53.552;9.908;2023-10-08T09:06:37;2.97;;;0.97;;
13683;SDS011;6914;53.552;9.908;2023-10-08T09:09:07;3.00;;;1.53;;
13683;SDS011;6914;53.552;9.908;2023-10-08T09:11:47;3.40;;;1.30;;
13683;SDS011;6914;53.552;9.908;2023-10-08T09:14:16;1.67;;;1.10;;
13683;SDS011;6914;53.552;9.908;2023-10-08T09:16:44;4.50;;;1.37;;
13683;SDS011;6914;53.552;9.908;2023-10-08T09:19:12;3.47;;;1.43;;
13683;SDS011;6914;53.552;9.908;2023-10-08T09:21:43;2.87;;;1.10;;
13683;SDS011;6914;53.552;9.908;2023-10-08T09:24:11;3.00;;;1.40;;
13683;SDS011;6914;53.552;9.908;2023-10-08T09:26:39;2.60;;;1.17;;
13683;SDS011;6914;53.552;9.908;2023-10-08T09:29:07;2.27;;;1.20;;
13683;SDS011;6914;53.552;9.908;2023-10-08T09:31:37;4.53;;;1.20;;
13683;SDS011;6914;53.552;9.908;2023-10-08T09:34:04;5.03;;;1.20;;
13683;SDS011;6914;53.552;9.908;2023-10-08T09:36:31;0.90;;;0.80;;
13683;SDS011;6914;53.552;9.908;2023-10-08T09:39:00;3.53;;;0.80;;
13683;SDS011;6914;53.552;9.908;2023-10-08T09:41:30;2.13;;;1.17;;
13683;SDS011;6914;53.552;9.908;2023-10-08T09:43:58;1.30;;;0.90;;
13683;SDS011;6914;53.552;9.908;2023-10-08T09:46:27;1.37;;;1.27;;
13683;SDS011;6914;53.552;9.908;2023-10-08T09:48:58;1.87;;;0.93;;
13683;SDS011;6914;53.552;9.908;2023-10-08T09:51:27;2.77;;;0.83;;
13683;SDS011;6914;53.552;9.908;2023-10-08T09:53:59;2.37;;;0.83;;
13683;SDS011;6914;53.552;9.908;2023-10-08T09:56:31;3.50;;;1.00;;
13683;SDS011;6914;53.552;9.908;2023-10-08T09:58:59;4.03;;;1.50;;
13683;SDS011;6914;53.552;9.908;2023-10-08T10:01:27;1.40;;;0.63;;
13683;SDS011;6914;53.552;9.908;2023-10-08T10:03:57;1.73;;;0.60;;
13683;SDS011;6914;53.552;9.908;2023-10-08T10:06:25;2.93;;;1.10;;
13683;SDS011;6914;53.552;9.908;2023-10-08T10:08:53;2.33;;;0.70;;
13683;SDS011;6914;53.552;9.908;2023-10-08T10:11:25;1.30;;;1.00;;
13683;SDS011;6914;53.552;9.908;2023-10-08T10:13:58;2.63;;;1.00;;
13683;SDS011;6914;53.552;9.908;2023-10-08T10:16:26;2.20;;;0.93;;
13683;SDS011;6914;53.552;9.908;2023-10-08T10:18:54;1.90;;;0.87;;
13683;SDS011;6914;53.552;9.908;2023-10-08T10:21:27;1.27;;;0.93;;
13683;SDS011;6914;53.552;9.908;2023-10-08T10:23:56;4.20;;;1.10;;
13683;SDS011;6914;53.552;9.908;2023-10-08T10:26:27;8.23;;;1.13;;
13683;SDS011;6914;53.552;9.908;2023-10-08T10:31:43;0.80;;;0.80;;
13683;SDS011;6914;53.552;9.908;2023-10-08T10:34:11;1.10;;;0.90;;
13683;SDS011;6914;53.552;9.908;2023-10-08T10:36:41;1.97;;;1.00;;
13683;SDS011;6914;53.552;9.908;2023-10-08T10:39:09;5.10;;;1.07;;
13683;SDS011;6914;53.552;9.908;2023-10-08T10:41:43;1.10;;;0.97;;
13683;SDS011;6914;53.552;9.908;2023-10-08T10:44:10;1.43;;;0.80;;
13683;SDS011;6914;53.552;9.908;2023-10-08T10:46:39;1.67;;;1.10;;
13683;SDS011;6914;53.552;9.908;2023-10-08T10:49:09;2.60;;;1.20;;
13683;SDS011;6914;53.552;9.908;2023-10-08T10:51:47;4.43;;;0.93;;
13683;SDS011;6914;53.552;9.908;2023-10-08T10:54:16;5.00;;;1.20;;
13683;SDS011;6914;53.552;9.908;2023-10-08T10:56:48;1.80;;;0.90;;
13683;SDS011;6914;53.552;9.908;2023-10-08T10:59:28;5.43;;;1.10;;
13683;SDS011;6914;53.552;9.908;2023-10-08T11:02:02;1.87;;;1.43;;
13683;SDS011;6914;53.552;9.908;2023-10-08T11:04:35;3.33;;;1.30;;
13683;SDS011;6914;53.552;9.908;2023-10-08T11:07:12;2.80;;;0.90;;
13683;SDS011;6914;53.552;9.908;2023-10-08T11:09:41;2.50;;;1.10;;
13683;SDS011;6914;53.552;9.908;2023-10-08T11:12:09;1.93;;;1.37;;
13683;SDS011;6914;53.552;9.908;2023-10-08T11:14:37;1.73;;;1.37;;
13683;SDS011;6914;53.552;9.908;2023-10-08T11:17:11;3.40;;;0.90;;
13683;SDS011;6914;53.552;9.908;2023-10-08T11:19:41;3.70;;;0.77;;
13683;SDS011;6914;53.552;9.908;2023-10-08T11:22:11;2.20;;;0.70;;
13683;SDS011;6914;53.552;9.908;2023-10-08T11:24:42;3.23;;;1.30;;
13683;SDS011;6914;53.552;9.908;2023-10-08T11:27:12;4.10;;;1.83;;
13683;SDS011;6914;53.552;9.908;2023-10-08T11:29:43;1.87;;;1.43;;
13683;SDS011;6914;53.552;9.908;2023-10-08T11:32:12;1.30;;;1.10;;
13683;SDS011;6914;53.552;9.908;2023-10-08T11:34:42;3.17;;;0.90;;
13683;SDS011;6914;53.552;9.908;2023-10-08T11:37:10;1.30;;;1.20;;
13683;SDS011;6914;53.552;9.908;2023-10-08T11:39:46;2.30;;;1.23;;
13683;SDS011;6914;53.552;9.908;2023-10-08T11:42:14;6.00;;;1.00;;
13683;SDS011;6914;53.552;9.908;2023-10-08T11:44:59;12.47;;;1.80;;
13683;SDS011;6914;53.552;9.908;2023-10-08T11:47:42;5.07;;;1.47;;
13683;SDS011;6914;53.552;9.908;2023-10-08T11:50:11;2.07;;;1.20;;
13683;SDS011;6914;53.552;9.908;2023-10-08T11:52:42;2.30;;;1.10;;
13683;SDS011;6914;53.552;9.908;2023-10-08T11:55:09;1.27;;;1.17;;
13683;SDS011;6914;53.552;9.908;2023-10-08T11:57:43;3.30;;;0.70;;
13683;SDS011;6914;53.552;9.908;2023-10-08T12:00:11;5.77;;;1.67;;
13683;SDS011;6914;53.552;9.908;2023-10-08T12:02:44;3.40;;;0.93;;
13683;SDS011;6914;53.552;9.908;2023-10-08T12:05:12;2.30;;;1.17;;
13683;SDS011;6914;53.552;9.908;2023-10-08T12:07:45;5.10;;;1.50;;
13683;SDS011;6914;53.552;9.908;2023-10-08T12:10:12;1.47;;;1.00;;
13683;SDS011;6914;53.552;9.908;2023-10-08T12:12:41;5.97;;;1.23;;
13683;SDS011;6914;53.552;9.908;2023-10-08T12:15:10;2.70;;;1.70;;
13683;SDS011;6914;53.552;9.908;2023-10-08T12:17:44;10.33;;;1.40;;
13683;SDS011;6914;53.552;9.908;2023-10-08T12:20:22;3.47;;;1.43;;
13683;SDS011;6914;53.552;9.908;2023-10-08T12:22:50;1.80;;;1.30;;
13683;SDS011;6914;53.552;9.908;2023-10-08T12:25:17;2.13;;;1.53;;
13683;SDS011;6914;53.552;9.908;2023-10-08T12:27:45;1.30;;;1.20;;
13683;SDS011;6914;53.552;9.908;2023-10-08T12:30:14;2.47;;;1.30;;
13683;SDS011;6914;53.552;9.908;2023-10-08T12:32:41;2.07;;;1.50;;
13683;SDS011;6914;53.552;9.908;2023-10-08T12:35:11;3.47;;;1.20;;
13683;SDS011;6914;53.552;9.908;2023-10-08T12:37:40;4.00;;;1.80;;
13683;SDS011;6914;53.552;9.908;2023-10-08T12:40:09;8.20;;;2.40;;
13683;SDS011;6914;53.552;9.908;2023-10-08T12:42:47;4.60;;;1.60;;
13683;SDS011;6914;53.552;9.908;2023-10-08T12:45:15;2.73;;;1.40;;
13683;SDS011;6914;53.552;9.908;2023-10-08T12:47:46;1.70;;;1.57;;
13683;SDS011;6914;53.552;9.908;2023-10-08T12:50:14;2.50;;;1.20;;
13683;SDS011;6914;53.552;9.908;2023-10-08T12:52:43;4.10;;;1.27;;
13683;SDS011;6914;53.552;9.908;2023-10-08T12:55:18;1.83;;;1.30;;
13683;SDS011;6914;53.552;9.908;2023-10-08T12:57:48;7.33;;;1.60;;
13683;SDS011;6914;53.552;9.908;2023-10-08T13:00:20;2.77;;;1.33;;
13683;SDS011;6914;53.552;9.908;2023-10-08T13:02:48;2.40;;;1.10;;
13683;SDS011;6914;53.552;9.908;2023-10-08T13:05:18;4.60;;;1.80;;
13683;SDS011;6914;53.552;9.908;2023-10-08T13:07:53;1.73;;;1.40;;
13683;SDS011;6914;53.552;9.908;2023-10-08T13:10:20;4.47;;;1.30;;
13683;SDS011;6914;53.552;9.908;2023-10-08T13:12:48;3.87;;;1.30;;
13683;SDS011;6914;53.552;9.908;2023-10-08T13:15:15;6.13;;;1.20;;
13683;SDS011;6914;53.552;9.908;2023-10-08T13:17:42;2.23;;;0.93;;
13683;SDS011;6914;53.552;9.908;2023-10-08T13:20:11;12.80;;;2.00;;
13683;SDS011;6914;53.552;9.908;2023-10-08T13:22:38;2.03;;;1.17;;
13683;SDS011;6914;53.552;9.908;2023-10-08T13:25:07;1.30;;;1.20;;
13683;SDS011;6914;53.552;9.908;2023-10-08T13:27:34;2.90;;;1.30;;
13683;SDS011;6914;53.552;9.908;2023-10-08T13:30:05;2.00;;;1.17;;
13683;SDS011;6914;53.552;9.908;2023-10-08T13:32:33;2.40;;;1.33;;
13683;SDS011;6914;53.552;9.908;2023-10-08T13:35:02;4.23;;;1.50;;
13683;SDS011;6914;53.552;9.908;2023-10-08T13:37:30;1.50;;;1.13;;
13683;SDS011;6914;53.552;9.908;2023-10-08T13:39:58;1.63;;;1.10;;
13683;SDS011;6914;53.552;9.908;2023-10-08T13:42:27;1.93;;;1.60;;
13683;SDS011;6914;53.552;9.908;2023-10-08T13:44:54;1.57;;;1.30;;
13683;SDS011;6914;53.552;9.908;2023-10-08T13:47:23;1.30;;;1.20;;
13683;SDS011;6914;53.552;9.908;2023-10-08T13:49:51;1.97;;;1.80;;
13683;SDS011;6914;53.552;9.908;2023-10-08T13:52:18;2.30;;;1.70;;
13683;SDS011;6914;53.552;9.908;2023-10-08T13:54:51;2.73;;;1.80;;
13683;SDS011;6914;53.552;9.908;2023-10-08T13:57:18;2.00;;;1.50;;
13683;SDS011;6914;53.552;9.908;2023-10-08T13:59:47;1.67;;;0.80;;
13683;SDS011;6914;53.552;9.908;2023-10-08T14:02:14;1.40;;;1.10;;
13683;SDS011;6914;53.552;9.908;2023-10-08T14:04:44;2.00;;;1.20;;
13683;SDS011;6914;53.552;9.908;2023-10-08T14:07:15;10.57;;;1.47;;
13683;SDS011;6914;53.552;9.908;2023-10-08T14:09:43;2.33;;;1.37;;
13683;SDS011;6914;53.552;9.908;2023-10-08T14:12:11;2.00;;;1.23;;
13683;SDS011;6914;53.552;9.908;2023-10-08T14:14:39;3.83;;;1.50;;
13683;SDS011;6914;53.552;9.908;2023-10-08T14:17:10;1.10;;;1.00;;
13683;SDS011;6914;53.552;9.908;2023-10-08T14:19:40;1.90;;;1.20;;
13683;SDS011;6914;53.552;9.908;2023-10-08T14:22:16;4.40;;;1.27;;
13683;SDS011;6914;53.552;9.908;2023-10-08T14:24:47;6.20;;;1.33;;
13683;SDS011;6914;53.552;9.908;2023-10-08T14:27:23;1.80;;;1.10;;
13683;SDS011;6914;53.552;9.908;2023-10-08T14:29:56;1.50;;;0.90;;
13683;SDS011;6914;53.552;9.908;2023-10-08T14:32:27;2.93;;;1.47;;
13683;SDS011;6914;53.552;9.908;2023-10-08T14:34:57;2.20;;;1.40;;
13683;SDS011;6914;53.552;9.908;2023-10-08T14:37:42;3.33;;;1.40;;
13683;SDS011;6914;53.552;9.908;2023-10-08T14:40:26;1.60;;;1.13;;
13683;SDS011;6914;53.552;9.908;2023-10-08T14:43:11;2.50;;;1.30;;
13683;SDS011;6914;53.552;9.908;2023-10-08T14:45:41;1.63;;;1.40;;
13683;SDS011;6914;53.552;9.908;2023-10-08T14:48:13;5.27;;;1.60;;
13683;SDS011;6914;53.552;9.908;2023-10-08T14:50:41;3.40;;;1.70;;
13683;SDS011;6914;53.552;9.908;2023-10-08T14:53:08;2.40;;;1.40;;
13683;SDS011;6914;53.552;9.908;2023-10-08T14:55:36;2.73;;;1.93;;
13683;SDS011;6914;53.552;9.908;2023-10-08T14:58:04;3.30;;;1.60;;
13683;SDS011;6914;53.552;9.908;2023-10-08T15:00:33;1.13;;;1.07;;
13683;SDS011;6914;53.552;9.908;2023-10-08T15:03:01;2.30;;;1.60;;
13683;SDS011;6914;53.552;9.908;2023-10-08T15:05:30;6.53;;;1.33;;
13683;SDS011;6914;53.552;9.908;2023-10-08T15:07:58;4.10;;;1.57;;
13683;SDS011;6914;53.552;9.908;2023-10-08T15:10:25;6.40;;;1.57;;
13683;SDS011;6914;53.552;9.908;2023-10-08T15:12:52;6.10;;;2.13;;
13683;SDS011;6914;53.552;9.908;2023-10-08T15:15:19;3.23;;;1.50;;
13683;SDS011;6914;53.552;9.908;2023-10-08T15:17:49;2.80;;;1.40;;
13683;SDS011;6914;53.552;9.908;2023-10-08T15:20:17;2.03;;;1.30;;
13683;SDS011;6914;53.552;9.908;2023-10-08T15:22:47;4.73;;;1.90;;
13683;SDS011;6914;53.552;9.908;2023-10-08T15:25:15;8.40;;;1.50;;
13683;SDS011;6914;53.552;9.908;2023-10-08T15:27:43;5.23;;;1.90;;
13683;SDS011;6914;53.552;9.908;2023-10-08T15:30:13;9.40;;;1.70;;